sensor_id;sensor_type;location;lat;lon;timestamp;temperature;humidity
18287;DHT22;9269;50.838;12.094;2023-05-31T00:00:57;18.20;24.90
18287;DHT22;9269;50.838;12.094;2023-05-31T00:03:27;18.10;25.90
18287;DHT22;9269;50.838;12.094;2023-05-31T00:05:55;18.10;26.10
18287;DHT22;9269;50.838;12.094;2023-05-31T00:08:26;18.10;26.20
18287;DHT22;9269;50.838;12.094;2023-05-31T00:10:55;18.10;25.80
18287;DHT22;9269;50.838;12.094;2023-05-31T00:13:24;18.00;26.30
18287;DHT22;9269;50.838;12.094;2023-05-31T00:15:53;18.00;26.10
18287;DHT22;9269;50.838;12.094;2023-05-31T00:18:21;18.00;26.70
18287;DHT22;9269;50.838;12.094;2023-05-31T00:20:52;17.90;27.50
18287;DHT22;9269;50.838;12.094;2023-05-31T00:23:25;17.90;27.20
18287;DHT22;9269;50.838;12.094;2023-05-31T00:25:57;18.00;27.40
18287;DHT22;9269;50.838;12.094;2023-05-31T00:28:41;17.90;27.90
18287;DHT22;9269;50.838;12.094;2023-05-31T00:31:10;17.90;28.20
18287;DHT22;9269;50.838;12.094;2023-05-31T00:33:38;17.80;28.60
18287;DHT22;9269;50.838;12.094;2023-05-31T00:36:27;17.90;28.10
18287;DHT22;9269;50.838;12.094;2023-05-31T00:39:08;17.70;27.60
18287;DHT22;9269;50.838;12.094;2023-05-31T00:41:49;17.60;27.30
18287;DHT22;9269;50.838;12.094;2023-05-31T00:44:18;17.60;27.50
18287;DHT22;9269;50.838;12.094;2023-05-31T00:46:46;17.60;27.30
18287;DHT22;9269;50.838;12.094;2023-05-31T00:49:17;17.50;27.50
18287;DHT22;9269;50.838;12.094;2023-05-31T00:51:48;17.40;27.60
18287;DHT22;9269;50.838;12.094;2023-05-31T00:54:19;17.40;27.30
18287;DHT22;9269;50.838;12.094;2023-05-31T00:56:49;17.40;27.10
18287;DHT22;9269;50.838;12.094;2023-05-31T00:59:17;17.40;27.50
18287;DHT22;9269;50.838;12.094;2023-05-31T01:01:48;17.40;27.50
18287;DHT22;9269;50.838;12.094;2023-05-31T01:04:17;17.30;27.70
18287;DHT22;9269;50.838;12.094;2023-05-31T01:06:46;17.30;28.20
18287;DHT22;9269;50.838;12.094;2023-05-31T01:09:17;17.30;28.70
18287;DHT22;9269;50.838;12.094;2023-05-31T01:11:57;17.30;28.60
18287;DHT22;9269;50.838;12.094;2023-05-31T01:14:35;17.20;28.50
18287;DHT22;9269;50.838;12.094;2023-05-31T01:17:17;17.10;28.20
18287;DHT22;9269;50.838;12.094;2023-05-31T01:19:52;17.20;28.70
18287;DHT22;9269;50.838;12.094;2023-05-31T01:22:33;17.10;29.20
18287;DHT22;9269;50.838;12.094;2023-05-31T01:25:26;17.10;29.40
18287;DHT22;9269;50.838;12.094;2023-05-31T01:28:00;17.10;28.90
18287;DHT22;9269;50.838;12.094;2023-05-31T01:30:33;17.00;28.70
18287;DHT22;9269;50.838;12.094;2023-05-31T01:33:08;17.00;28.80
18287;DHT22;9269;50.838;12.094;2023-05-31T01:35:38;16.90;28.80
18287;DHT22;9269;50.838;12.094;2023-05-31T01:38:06;16.80;28.80
18287;DHT22;9269;50.838;12.094;2023-05-31T01:40:37;16.90;29.10
18287;DHT22;9269;50.838;12.094;2023-05-31T01:43:28;16.80;29.40
18287;DHT22;9269;50.838;12.094;2023-05-31T01:45:57;16.80;29.40
18287;DHT22;9269;50.838;12.094;2023-05-31T01:48:26;16.80;29.20
18287;DHT22;9269;50.838;12.094;2023-05-31T01:50:58;16.80;29.00
18287;DHT22;9269;50.838;12.094;2023-05-31T01:53:41;16.70;28.90
18287;DHT22;9269;50.838;12.094;2023-05-31T01:56:11;16.70;29.00
18287;DHT22;9269;50.838;12.094;2023-05-31T01:58:42;16.70;28.80
18287;DHT22;9269;50.838;12.094;2023-05-31T02:01:17;16.70;29.10
18287;DHT22;9269;50.838;12.094;2023-05-31T02:03:49;16.60;28.80
18287;DHT22;9269;50.838;12.094;2023-05-31T02:06:20;16.70;30.10
18287;DHT22;9269;50.838;12.094;2023-05-31T02:08:58;16.60;30.30
18287;DHT22;9269;50.838;12.094;2023-05-31T02:11:27;16.60;30.50
18287;DHT22;9269;50.838;12.094;2023-05-31T02:13:57;16.60;30.60
18287;DHT22;9269;50.838;12.094;2023-05-31T02:16:28;16.60;31.00
18287;DHT22;9269;50.838;12.094;2023-05-31T02:18:57;16.60;30.70
18287;DHT22;9269;50.838;12.094;2023-05-31T02:21:26;16.50;30.00
18287;DHT22;9269;50.838;12.094;2023-05-31T02:23:54;16.50;29.90
18287;DHT22;9269;50.838;12.094;2023-05-31T02:26:24;16.40;30.10
18287;DHT22;9269;50.838;12.094;2023-05-31T02:28:53;16.50;30.50
18287;DHT22;9269;50.838;12.094;2023-05-31T02:31:24;16.40;30.80
18287;DHT22;9269;50.838;12.094;2023-05-31T02:33:52;16.40;31.10
18287;DHT22;9269;50.838;12.094;2023-05-31T02:36:21;16.30;31.40
18287;DHT22;9269;50.838;12.094;2023-05-31T02:38:50;16.30;31.00
18287;DHT22;9269;50.838;12.094;2023-05-31T02:41:21;16.40;30.90
18287;DHT22;9269;50.838;12.094;2023-05-31T02:43:49;16.30;30.50
18287;DHT22;9269;50.838;12.094;2023-05-31T02:46:19;16.30;30.10
18287;DHT22;9269;50.838;12.094;2023-05-31T02:49:08;16.20;29.90
18287;DHT22;9269;50.838;12.094;2023-05-31T02:51:38;16.20;30.10
18287;DHT22;9269;50.838;12.094;2023-05-31T02:54:08;16.20;30.10
18287;DHT22;9269;50.838;12.094;2023-05-31T02:56:36;16.20;29.80
18287;DHT22;9269;50.838;12.094;2023-05-31T02:59:05;16.20;30.20
18287;DHT22;9269;50.838;12.094;2023-05-31T03:01:33;16.10;30.10
18287;DHT22;9269;50.838;12.094;2023-05-31T03:04:03;16.10;30.50
18287;DHT22;9269;50.838;12.094;2023-05-31T03:06:34;16.10;30.60
18287;DHT22;9269;50.838;12.094;2023-05-31T03:09:02;16.00;31.00
18287;DHT22;9269;50.838;12.094;2023-05-31T03:11:32;16.00;31.30
18287;DHT22;9269;50.838;12.094;2023-05-31T03:14:00;16.00;31.10
18287;DHT22;9269;50.838;12.094;2023-05-31T03:16:39;16.10;30.70
18287;DHT22;9269;50.838;12.094;2023-05-31T03:19:07;16.00;30.60
18287;DHT22;9269;50.838;12.094;2023-05-31T03:21:39;15.90;30.60
18287;DHT22;9269;50.838;12.094;2023-05-31T03:24:08;15.90;30.60
18287;DHT22;9269;50.838;12.094;2023-05-31T03:26:37;15.90;30.20
18287;DHT22;9269;50.838;12.094;2023-05-31T03:29:05;15.90;30.40
18287;DHT22;9269;50.838;12.094;2023-05-31T03:31:33;15.80;30.20
18287;DHT22;9269;50.838;12.094;2023-05-31T03:34:04;15.90;30.20
18287;DHT22;9269;50.838;12.094;2023-05-31T03:36:53;15.90;30.00
18287;DHT22;9269;50.838;12.094;2023-05-31T03:39:22;15.90;30.20
18287;DHT22;9269;50.838;12.094;2023-05-31T03:41:51;15.90;30.20
18287;DHT22;9269;50.838;12.094;2023-05-31T03:44:20;15.90;30.20
18287;DHT22;9269;50.838;12.094;2023-05-31T03:46:48;15.90;30.20
18287;DHT22;9269;50.838;12.094;2023-05-31T03:49:17;15.80;30.50
18287;DHT22;9269;50.838;12.094;2023-05-31T03:51:46;15.90;30.30
18287;DHT22;9269;50.838;12.094;2023-05-31T03:54:16;15.80;30.50
18287;DHT22;9269;50.838;12.094;2023-05-31T03:56:51;15.80;30.70
18287;DHT22;9269;50.838;12.094;2023-05-31T03:59:19;15.80;30.30
18287;DHT22;9269;50.838;12.094;2023-05-31T04:01:48;15.90;30.00
18287;DHT22;9269;50.838;12.094;2023-05-31T04:04:16;15.90;30.40
18287;DHT22;9269;50.838;12.094;2023-05-31T04:06:53;15.90;30.30
18287;DHT22;9269;50.838;12.094;2023-05-31T04:09:23;15.90;30.30
18287;DHT22;9269;50.838;12.094;2023-05-31T04:11:55;16.00;30.20
18287;DHT22;9269;50.838;12.094;2023-05-31T04:14:23;15.90;29.80
18287;DHT22;9269;50.838;12.094;2023-05-31T04:16:57;16.00;30.00
18287;DHT22;9269;50.838;12.094;2023-05-31T04:19:27;16.00;30.10
18287;DHT22;9269;50.838;12.094;2023-05-31T04:21:55;16.00;29.90
18287;DHT22;9269;50.838;12.094;2023-05-31T04:24:26;16.10;29.90
18287;DHT22;9269;50.838;12.094;2023-05-31T04:27:02;16.10;29.70
18287;DHT22;9269;50.838;12.094;2023-05-31T04:29:31;16.20;30.00
18287;DHT22;9269;50.838;12.094;2023-05-31T04:32:00;16.20;30.60
18287;DHT22;9269;50.838;12.094;2023-05-31T04:34:28;16.30;30.20
18287;DHT22;9269;50.838;12.094;2023-05-31T04:36:58;16.20;30.40
18287;DHT22;9269;50.838;12.094;2023-05-31T04:39:28;16.30;30.00
18287;DHT22;9269;50.838;12.094;2023-05-31T04:41:58;16.40;29.60
18287;DHT22;9269;50.838;12.094;2023-05-31T04:44:27;16.40;30.00
18287;DHT22;9269;50.838;12.094;2023-05-31T04:47:05;16.40;29.80
18287;DHT22;9269;50.838;12.094;2023-05-31T04:49:33;16.50;30.50
18287;DHT22;9269;50.838;12.094;2023-05-31T04:52:20;16.50;30.20
18287;DHT22;9269;50.838;12.094;2023-05-31T04:54:51;16.60;30.40
18287;DHT22;9269;50.838;12.094;2023-05-31T04:57:19;16.70;30.40
18287;DHT22;9269;50.838;12.094;2023-05-31T04:59:48;16.80;29.80
18287;DHT22;9269;50.838;12.094;2023-05-31T05:02:17;16.80;30.00
18287;DHT22;9269;50.838;12.094;2023-05-31T05:04:46;16.90;29.60
18287;DHT22;9269;50.838;12.094;2023-05-31T05:07:16;16.90;29.70
18287;DHT22;9269;50.838;12.094;2023-05-31T05:09:44;17.00;29.10
18287;DHT22;9269;50.838;12.094;2023-05-31T05:12:14;17.10;29.40
18287;DHT22;9269;50.838;12.094;2023-05-31T05:14:43;17.20;29.20
18287;DHT22;9269;50.838;12.094;2023-05-31T05:17:11;17.30;29.30
18287;DHT22;9269;50.838;12.094;2023-05-31T05:19:40;17.40;28.90
18287;DHT22;9269;50.838;12.094;2023-05-31T05:22:09;17.40;28.90
18287;DHT22;9269;50.838;12.094;2023-05-31T05:24:39;17.60;29.00
18287;DHT22;9269;50.838;12.094;2023-05-31T05:27:07;17.60;28.70
18287;DHT22;9269;50.838;12.094;2023-05-31T05:29:37;17.80;28.60
18287;DHT22;9269;50.838;12.094;2023-05-31T05:32:07;17.90;28.50
18287;DHT22;9269;50.838;12.094;2023-05-31T05:34:35;18.00;29.00
18287;DHT22;9269;50.838;12.094;2023-05-31T05:37:04;18.00;28.70
18287;DHT22;9269;50.838;12.094;2023-05-31T05:39:34;18.10;28.70
18287;DHT22;9269;50.838;12.094;2023-05-31T05:42:02;18.20;27.20
18287;DHT22;9269;50.838;12.094;2023-05-31T05:44:31;18.30;27.30
18287;DHT22;9269;50.838;12.094;2023-05-31T05:47:02;18.40;27.20
18287;DHT22;9269;50.838;12.094;2023-05-31T05:49:31;18.40;26.90
18287;DHT22;9269;50.838;12.094;2023-05-31T05:52:01;18.60;26.70
18287;DHT22;9269;50.838;12.094;2023-05-31T05:54:29;18.60;26.90
18287;DHT22;9269;50.838;12.094;2023-05-31T05:56:58;18.70;27.20
18287;DHT22;9269;50.838;12.094;2023-05-31T05:59:28;18.80;27.10
18287;DHT22;9269;50.838;12.094;2023-05-31T06:01:57;18.80;27.40
18287;DHT22;9269;50.838;12.094;2023-05-31T06:04:27;18.90;27.40
18287;DHT22;9269;50.838;12.094;2023-05-31T06:06:55;19.00;27.20
18287;DHT22;9269;50.838;12.094;2023-05-31T06:09:24;19.10;27.40
18287;DHT22;9269;50.838;12.094;2023-05-31T06:11:53;19.20;27.10
18287;DHT22;9269;50.838;12.094;2023-05-31T06:14:22;19.30;27.10
18287;DHT22;9269;50.838;12.094;2023-05-31T06:16:51;19.40;27.10
18287;DHT22;9269;50.838;12.094;2023-05-31T06:19:20;19.60;27.00
18287;DHT22;9269;50.838;12.094;2023-05-31T06:21:49;19.80;26.20
18287;DHT22;9269;50.838;12.094;2023-05-31T06:24:19;19.80;26.60
18287;DHT22;9269;50.838;12.094;2023-05-31T06:26:47;19.80;26.30
18287;DHT22;9269;50.838;12.094;2023-05-31T06:29:16;20.00;26.50
18287;DHT22;9269;50.838;12.094;2023-05-31T06:31:45;20.10;26.40
18287;DHT22;9269;50.838;12.094;2023-05-31T06:34:13;20.10;26.30
18287;DHT22;9269;50.838;12.094;2023-05-31T06:36:42;20.10;26.40
18287;DHT22;9269;50.838;12.094;2023-05-31T06:39:11;20.20;26.10
18287;DHT22;9269;50.838;12.094;2023-05-31T06:41:40;20.20;26.10
18287;DHT22;9269;50.838;12.094;2023-05-31T06:44:08;20.30;26.00
18287;DHT22;9269;50.838;12.094;2023-05-31T06:46:37;20.40;26.00
18287;DHT22;9269;50.838;12.094;2023-05-31T06:49:07;20.40;25.90
18287;DHT22;9269;50.838;12.094;2023-05-31T06:51:39;20.50;25.60
18287;DHT22;9269;50.838;12.094;2023-05-31T06:54:07;20.70;25.40
18287;DHT22;9269;50.838;12.094;2023-05-31T06:56:37;20.80;25.40
18287;DHT22;9269;50.838;12.094;2023-05-31T06:59:06;20.80;25.40
18287;DHT22;9269;50.838;12.094;2023-05-31T07:01:35;21.00;24.30
18287;DHT22;9269;50.838;12.094;2023-05-31T07:04:04;21.10;24.20
18287;DHT22;9269;50.838;12.094;2023-05-31T07:06:32;21.20;24.00
18287;DHT22;9269;50.838;12.094;2023-05-31T07:09:01;21.30;23.90
18287;DHT22;9269;50.838;12.094;2023-05-31T07:11:31;21.50;23.80
18287;DHT22;9269;50.838;12.094;2023-05-31T07:14:01;21.50;23.90
18287;DHT22;9269;50.838;12.094;2023-05-31T07:16:31;21.60;23.70
18287;DHT22;9269;50.838;12.094;2023-05-31T07:18:59;21.80;23.90
18287;DHT22;9269;50.838;12.094;2023-05-31T07:21:28;21.90;23.70
18287;DHT22;9269;50.838;12.094;2023-05-31T07:23:57;21.90;23.70
18287;DHT22;9269;50.838;12.094;2023-05-31T07:26:25;22.10;23.80
18287;DHT22;9269;50.838;12.094;2023-05-31T07:28:55;22.20;23.30
18287;DHT22;9269;50.838;12.094;2023-05-31T07:31:26;22.30;23.30
18287;DHT22;9269;50.838;12.094;2023-05-31T07:33:54;22.40;23.40
18287;DHT22;9269;50.838;12.094;2023-05-31T07:36:23;22.50;23.20
18287;DHT22;9269;50.838;12.094;2023-05-31T07:38:53;22.60;23.30
18287;DHT22;9269;50.838;12.094;2023-05-31T07:41:21;22.80;22.90
18287;DHT22;9269;50.838;12.094;2023-05-31T07:43:51;22.80;22.70
18287;DHT22;9269;50.838;12.094;2023-05-31T07:46:24;23.00;22.80
18287;DHT22;9269;50.838;12.094;2023-05-31T07:48:53;23.10;22.60
18287;DHT22;9269;50.838;12.094;2023-05-31T07:51:22;23.20;22.20
18287;DHT22;9269;50.838;12.094;2023-05-31T07:53:50;23.30;22.40
18287;DHT22;9269;50.838;12.094;2023-05-31T07:56:19;23.50;22.60
18287;DHT22;9269;50.838;12.094;2023-05-31T07:58:48;23.60;22.40
18287;DHT22;9269;50.838;12.094;2023-05-31T08:01:17;23.80;21.30
18287;DHT22;9269;50.838;12.094;2023-05-31T08:03:47;23.90;21.30
18287;DHT22;9269;50.838;12.094;2023-05-31T08:06:16;24.00;21.20
18287;DHT22;9269;50.838;12.094;2023-05-31T08:08:46;24.00;20.90
18287;DHT22;9269;50.838;12.094;2023-05-31T08:11:15;24.20;20.90
18287;DHT22;9269;50.838;12.094;2023-05-31T08:13:43;24.30;20.50
18287;DHT22;9269;50.838;12.094;2023-05-31T08:16:12;24.40;19.90
18287;DHT22;9269;50.838;12.094;2023-05-31T08:18:41;24.40;17.90
18287;DHT22;9269;50.838;12.094;2023-05-31T08:21:11;24.60;18.10
18287;DHT22;9269;50.838;12.094;2023-05-31T08:23:39;24.70;17.30
18287;DHT22;9269;50.838;12.094;2023-05-31T08:26:08;24.70;17.10
18287;DHT22;9269;50.838;12.094;2023-05-31T08:28:37;24.70;16.30
18287;DHT22;9269;50.838;12.094;2023-05-31T08:31:06;24.80;16.50
18287;DHT22;9269;50.838;12.094;2023-05-31T08:33:35;24.80;16.40
18287;DHT22;9269;50.838;12.094;2023-05-31T08:36:04;24.90;16.20
18287;DHT22;9269;50.838;12.094;2023-05-31T08:38:34;25.00;16.10
18287;DHT22;9269;50.838;12.094;2023-05-31T08:41:04;25.20;15.90
18287;DHT22;9269;50.838;12.094;2023-05-31T08:43:35;25.30;15.90
18287;DHT22;9269;50.838;12.094;2023-05-31T08:46:04;25.50;15.30
18287;DHT22;9269;50.838;12.094;2023-05-31T08:48:38;25.60;15.60
18287;DHT22;9269;50.838;12.094;2023-05-31T08:51:09;25.60;14.20
18287;DHT22;9269;50.838;12.094;2023-05-31T08:53:40;25.80;13.80
18287;DHT22;9269;50.838;12.094;2023-05-31T08:56:09;25.80;14.00
18287;DHT22;9269;50.838;12.094;2023-05-31T08:58:39;25.90;13.20
18287;DHT22;9269;50.838;12.094;2023-05-31T09:01:10;25.90;12.90
18287;DHT22;9269;50.838;12.094;2023-05-31T09:03:40;26.10;12.90
18287;DHT22;9269;50.838;12.094;2023-05-31T09:06:09;26.20;13.20
18287;DHT22;9269;50.838;12.094;2023-05-31T09:08:40;26.30;13.10
18287;DHT22;9269;50.838;12.094;2023-05-31T09:11:09;26.30;13.30
18287;DHT22;9269;50.838;12.094;2023-05-31T09:13:40;26.50;13.50
18287;DHT22;9269;50.838;12.094;2023-05-31T09:16:10;26.60;11.70
18287;DHT22;9269;50.838;12.094;2023-05-31T09:18:40;26.60;11.70
18287;DHT22;9269;50.838;12.094;2023-05-31T09:21:09;26.70;12.70
18287;DHT22;9269;50.838;12.094;2023-05-31T09:23:52;26.80;12.30
18287;DHT22;9269;50.838;12.094;2023-05-31T09:26:22;26.90;11.40
18287;DHT22;9269;50.838;12.094;2023-05-31T09:28:52;26.80;11.10
18287;DHT22;9269;50.838;12.094;2023-05-31T09:31:21;26.90;11.60
18287;DHT22;9269;50.838;12.094;2023-05-31T09:33:50;27.00;10.90
18287;DHT22;9269;50.838;12.094;2023-05-31T09:36:25;27.00;11.40
18287;DHT22;9269;50.838;12.094;2023-05-31T09:39:03;26.90;11.70
18287;DHT22;9269;50.838;12.094;2023-05-31T09:41:33;27.10;11.60
18287;DHT22;9269;50.838;12.094;2023-05-31T09:44:02;27.20;12.60
18287;DHT22;9269;50.838;12.094;2023-05-31T09:46:30;27.40;11.40
18287;DHT22;9269;50.838;12.094;2023-05-31T09:49:01;27.40;10.70
18287;DHT22;9269;50.838;12.094;2023-05-31T09:51:31;27.50;11.20
18287;DHT22;9269;50.838;12.094;2023-05-31T09:54:02;27.50;11.50
18287;DHT22;9269;50.838;12.094;2023-05-31T09:56:36;27.50;10.70
18287;DHT22;9269;50.838;12.094;2023-05-31T09:59:06;27.60;11.20
18287;DHT22;9269;50.838;12.094;2023-05-31T10:01:35;27.80;11.60
18287;DHT22;9269;50.838;12.094;2023-05-31T10:04:05;27.90;11.90
18287;DHT22;9269;50.838;12.094;2023-05-31T10:06:34;28.00;10.70
18287;DHT22;9269;50.838;12.094;2023-05-31T10:09:05;28.20;11.00
18287;DHT22;9269;50.838;12.094;2023-05-31T10:11:36;28.10;10.30
18287;DHT22;9269;50.838;12.094;2023-05-31T10:14:09;28.30;10.40
18287;DHT22;9269;50.838;12.094;2023-05-31T10:16:45;28.30;11.00
18287;DHT22;9269;50.838;12.094;2023-05-31T10:19:19;28.40;10.90
18287;DHT22;9269;50.838;12.094;2023-05-31T10:21:50;28.40;11.00
18287;DHT22;9269;50.838;12.094;2023-05-31T10:24:23;28.60;11.00
18287;DHT22;9269;50.838;12.094;2023-05-31T10:26:59;28.60;10.90
18287;DHT22;9269;50.838;12.094;2023-05-31T10:29:33;28.60;10.50
18287;DHT22;9269;50.838;12.094;2023-05-31T10:32:10;28.70;11.20
18287;DHT22;9269;50.838;12.094;2023-05-31T10:34:40;28.80;10.30
18287;DHT22;9269;50.838;12.094;2023-05-31T10:37:10;28.80;10.10
18287;DHT22;9269;50.838;12.094;2023-05-31T10:39:44;28.80;10.40
18287;DHT22;9269;50.838;12.094;2023-05-31T10:42:20;28.80;9.60
18287;DHT22;9269;50.838;12.094;2023-05-31T10:44:57;28.80;10.30
18287;DHT22;9269;50.838;12.094;2023-05-31T10:47:35;28.90;10.80
18287;DHT22;9269;50.838;12.094;2023-05-31T10:50:05;28.90;10.80
18287;DHT22;9269;50.838;12.094;2023-05-31T10:52:35;28.90;10.30
18287;DHT22;9269;50.838;12.094;2023-05-31T10:55:18;29.00;10.40
18287;DHT22;9269;50.838;12.094;2023-05-31T10:57:50;29.10;10.60
18287;DHT22;9269;50.838;12.094;2023-05-31T11:00:20;29.10;10.10
18287;DHT22;9269;50.838;12.094;2023-05-31T11:02:50;29.20;10.40
18287;DHT22;9269;50.838;12.094;2023-05-31T11:18:48;28.20;11.40
18287;DHT22;9269;50.838;12.094;2023-05-31T11:21:47;29.30;9.70
18287;DHT22;9269;50.838;12.094;2023-05-31T11:24:27;29.60;9.80
18287;DHT22;9269;50.838;12.094;2023-05-31T11:26:58;29.70;9.60
18287;DHT22;9269;50.838;12.094;2023-05-31T11:29:55;29.70;8.60
18287;DHT22;9269;50.838;12.094;2023-05-31T11:32:59;29.60;8.90
18287;DHT22;9269;50.838;12.094;2023-05-31T11:35:32;29.70;8.80
18287;DHT22;9269;50.838;12.094;2023-05-31T11:38:05;29.70;8.70
18287;DHT22;9269;50.838;12.094;2023-05-31T11:40:34;29.80;8.80
18287;DHT22;9269;50.838;12.094;2023-05-31T11:43:06;29.70;8.60
18287;DHT22;9269;50.838;12.094;2023-05-31T11:45:45;29.80;7.60
18287;DHT22;9269;50.838;12.094;2023-05-31T11:48:27;29.80;7.70
18287;DHT22;9269;50.838;12.094;2023-05-31T11:51:03;29.80;7.40
18287;DHT22;9269;50.838;12.094;2023-05-31T11:53:32;29.90;8.40
18287;DHT22;9269;50.838;12.094;2023-05-31T11:56:00;30.00;8.50
18287;DHT22;9269;50.838;12.094;2023-05-31T11:58:31;30.10;8.60
18287;DHT22;9269;50.838;12.094;2023-05-31T12:00:59;30.10;8.70
18287;DHT22;9269;50.838;12.094;2023-05-31T12:03:29;30.20;8.50
18287;DHT22;9269;50.838;12.094;2023-05-31T12:05:59;30.30;7.80
18287;DHT22;9269;50.838;12.094;2023-05-31T12:08:34;30.20;7.60
18287;DHT22;9269;50.838;12.094;2023-05-31T12:11:04;30.30;7.90
18287;DHT22;9269;50.838;12.094;2023-05-31T12:13:35;30.20;8.00
18287;DHT22;9269;50.838;12.094;2023-05-31T12:16:07;30.20;7.20
18287;DHT22;9269;50.838;12.094;2023-05-31T12:18:36;30.40;7.80
18287;DHT22;9269;50.838;12.094;2023-05-31T12:21:09;30.40;8.10
18287;DHT22;9269;50.838;12.094;2023-05-31T12:23:55;30.30;8.40
18287;DHT22;9269;50.838;12.094;2023-05-31T12:26:24;30.50;7.50
18287;DHT22;9269;50.838;12.094;2023-05-31T12:28:55;30.50;7.40
18287;DHT22;9269;50.838;12.094;2023-05-31T12:31:24;30.50;7.70
18287;DHT22;9269;50.838;12.094;2023-05-31T12:33:59;30.50;7.60
18287;DHT22;9269;50.838;12.094;2023-05-31T12:36:28;30.60;6.70
18287;DHT22;9269;50.838;12.094;2023-05-31T12:39:08;30.50;7.10
18287;DHT22;9269;50.838;12.094;2023-05-31T12:41:44;30.50;7.10
18287;DHT22;9269;50.838;12.094;2023-05-31T12:44:14;30.40;5.80
18287;DHT22;9269;50.838;12.094;2023-05-31T12:46:44;30.40;6.60
18287;DHT22;9269;50.838;12.094;2023-05-31T12:49:14;30.50;7.10
18287;DHT22;9269;50.838;12.094;2023-05-31T12:51:47;30.50;7.30
18287;DHT22;9269;50.838;12.094;2023-05-31T12:54:17;30.50;6.70
18287;DHT22;9269;50.838;12.094;2023-05-31T12:56:47;30.40;6.00
18287;DHT22;9269;50.838;12.094;2023-05-31T12:59:16;30.40;6.70
18287;DHT22;9269;50.838;12.094;2023-05-31T13:01:45;30.20;6.00
18287;DHT22;9269;50.838;12.094;2023-05-31T13:04:14;30.20;7.10
18287;DHT22;9269;50.838;12.094;2023-05-31T13:06:42;30.10;7.10
18287;DHT22;9269;50.838;12.094;2023-05-31T13:09:11;30.30;7.80
18287;DHT22;9269;50.838;12.094;2023-05-31T13:11:48;30.40;6.30
18287;DHT22;9269;50.838;12.094;2023-05-31T13:14:20;30.40;6.40
18287;DHT22;9269;50.838;12.094;2023-05-31T13:16:53;30.40;5.70
18287;DHT22;9269;50.838;12.094;2023-05-31T13:19:21;30.50;6.10
18287;DHT22;9269;50.838;12.094;2023-05-31T13:21:52;30.60;6.40
18287;DHT22;9269;50.838;12.094;2023-05-31T13:24:24;30.50;5.60
18287;DHT22;9269;50.838;12.094;2023-05-31T13:26:56;30.50;6.10
18287;DHT22;9269;50.838;12.094;2023-05-31T13:29:25;30.50;5.40
18287;DHT22;9269;50.838;12.094;2023-05-31T13:31:53;30.40;6.00
18287;DHT22;9269;50.838;12.094;2023-05-31T13:34:22;30.50;4.90
18287;DHT22;9269;50.838;12.094;2023-05-31T13:36:51;30.50;4.50
18287;DHT22;9269;50.838;12.094;2023-05-31T13:39:19;30.30;5.10
18287;DHT22;9269;50.838;12.094;2023-05-31T13:41:52;30.40;5.70
18287;DHT22;9269;50.838;12.094;2023-05-31T13:44:24;30.40;5.20
18287;DHT22;9269;50.838;12.094;2023-05-31T13:46:52;30.50;4.80
18287;DHT22;9269;50.838;12.094;2023-05-31T13:49:21;30.40;5.00
18287;DHT22;9269;50.838;12.094;2023-05-31T13:51:50;30.40;5.90
18287;DHT22;9269;50.838;12.094;2023-05-31T13:54:20;30.40;5.20
18287;DHT22;9269;50.838;12.094;2023-05-31T13:56:49;30.50;5.10
18287;DHT22;9269;50.838;12.094;2023-05-31T13:59:17;30.40;4.70
18287;DHT22;9269;50.838;12.094;2023-05-31T14:01:47;30.40;5.20
18287;DHT22;9269;50.838;12.094;2023-05-31T14:04:16;30.20;5.20
18287;DHT22;9269;50.838;12.094;2023-05-31T14:06:44;30.20;4.60
18287;DHT22;9269;50.838;12.094;2023-05-31T14:09:13;30.30;4.00
18287;DHT22;9269;50.838;12.094;2023-05-31T14:11:42;30.20;5.10
18287;DHT22;9269;50.838;12.094;2023-05-31T14:14:13;30.30;5.20
18287;DHT22;9269;50.838;12.094;2023-05-31T14:16:42;30.30;4.90
18287;DHT22;9269;50.838;12.094;2023-05-31T14:19:12;30.10;4.50
18287;DHT22;9269;50.838;12.094;2023-05-31T14:21:41;30.00;4.40
18287;DHT22;9269;50.838;12.094;2023-05-31T14:24:10;30.00;5.00
18287;DHT22;9269;50.838;12.094;2023-05-31T14:26:42;30.00;4.00
18287;DHT22;9269;50.838;12.094;2023-05-31T14:29:11;29.90;4.30
18287;DHT22;9269;50.838;12.094;2023-05-31T14:31:41;29.80;3.60
18287;DHT22;9269;50.838;12.094;2023-05-31T14:34:16;30.00;4.10
18287;DHT22;9269;50.838;12.094;2023-05-31T14:36:45;29.80;3.80
18287;DHT22;9269;50.838;12.094;2023-05-31T14:39:14;29.80;3.30
18287;DHT22;9269;50.838;12.094;2023-05-31T14:41:44;29.80;4.00
18287;DHT22;9269;50.838;12.094;2023-05-31T14:44:12;29.80;4.40
18287;DHT22;9269;50.838;12.094;2023-05-31T14:46:44;29.70;5.00
18287;DHT22;9269;50.838;12.094;2023-05-31T14:49:16;29.80;5.00
18287;DHT22;9269;50.838;12.094;2023-05-31T14:52:05;29.70;5.20
18287;DHT22;9269;50.838;12.094;2023-05-31T14:54:34;29.90;5.40
18287;DHT22;9269;50.838;12.094;2023-05-31T14:57:05;29.90;4.50
18287;DHT22;9269;50.838;12.094;2023-05-31T14:59:36;29.80;3.80
18287;DHT22;9269;50.838;12.094;2023-05-31T15:02:05;29.90;3.90
18287;DHT22;9269;50.838;12.094;2023-05-31T15:04:37;29.80;4.10
18287;DHT22;9269;50.838;12.094;2023-05-31T15:07:05;29.80;4.10
18287;DHT22;9269;50.838;12.094;2023-05-31T15:09:35;29.80;3.30
18287;DHT22;9269;50.838;12.094;2023-05-31T15:12:04;29.80;4.10
18287;DHT22;9269;50.838;12.094;2023-05-31T15:14:35;29.90;4.50
18287;DHT22;9269;50.838;12.094;2023-05-31T15:17:05;29.80;5.10
18287;DHT22;9269;50.838;12.094;2023-05-31T15:19:34;29.70;4.60
18287;DHT22;9269;50.838;12.094;2023-05-31T15:22:09;29.60;3.10
18287;DHT22;9269;50.838;12.094;2023-05-31T15:24:38;29.60;3.20
18287;DHT22;9269;50.838;12.094;2023-05-31T15:27:13;29.50;3.90
18287;DHT22;9269;50.838;12.094;2023-05-31T15:29:42;29.50;3.50
18287;DHT22;9269;50.838;12.094;2023-05-31T15:32:14;29.50;3.90
18287;DHT22;9269;50.838;12.094;2023-05-31T15:34:43;29.50;4.50
18287;DHT22;9269;50.838;12.094;2023-05-31T15:37:16;29.50;4.50
18287;DHT22;9269;50.838;12.094;2023-05-31T15:39:46;29.50;4.20
18287;DHT22;9269;50.838;12.094;2023-05-31T15:42:14;29.60;4.40
18287;DHT22;9269;50.838;12.094;2023-05-31T15:44:44;29.50;4.50
18287;DHT22;9269;50.838;12.094;2023-05-31T15:47:15;29.60;5.00
18287;DHT22;9269;50.838;12.094;2023-05-31T15:49:46;29.60;4.70
18287;DHT22;9269;50.838;12.094;2023-05-31T15:52:26;29.70;4.20
18287;DHT22;9269;50.838;12.094;2023-05-31T15:54:55;29.60;4.30
18287;DHT22;9269;50.838;12.094;2023-05-31T15:57:43;29.50;3.90
18287;DHT22;9269;50.838;12.094;2023-05-31T16:00:21;29.60;4.00
18287;DHT22;9269;50.838;12.094;2023-05-31T16:02:55;29.40;3.80
18287;DHT22;9269;50.838;12.094;2023-05-31T16:05:24;29.30;3.60
18287;DHT22;9269;50.838;12.094;2023-05-31T16:07:59;29.30;3.80
18287;DHT22;9269;50.838;12.094;2023-05-31T16:10:29;29.20;4.40
18287;DHT22;9269;50.838;12.094;2023-05-31T16:12:58;29.00;5.00